sensor_id;sensor_type;location;lat;lon;timestamp;temperature;humidity
30371;DHT22;17164;48.590;11.410;2022-09-01T00:02:03;16.60;99.90
30371;DHT22;17164;48.590;11.410;2022-09-01T00:04:34;16.60;99.90
30371;DHT22;17164;48.590;11.410;2022-09-01T00:07:01;16.50;99.90
30371;DHT22;17164;48.590;11.410;2022-09-01T00:09:26;16.50;99.90
30371;DHT22;17164;48.590;11.410;2022-09-01T00:11:54;16.60;99.90
30371;DHT22;17164;48.590;11.410;2022-09-01T00:14:25;16.60;99.90
30371;DHT22;17164;48.590;11.410;2022-09-01T00:16:50;16.50;99.90
30371;DHT22;17164;48.590;11.410;2022-09-01T00:19:16;16.60;99.90
30371;DHT22;17164;48.590;11.410;2022-09-01T00:21:44;16.60;99.90
30371;DHT22;17164;48.590;11.410;2022-09-01T00:24:13;16.60;99.90
30371;DHT22;17164;48.590;11.410;2022-09-01T00:26:39;16.60;99.90
30371;DHT22;17164;48.590;11.410;2022-09-01T00:29:05;16.60;99.90
30371;DHT22;17164;48.590;11.410;2022-09-01T00:31:31;16.50;99.90
30371;DHT22;17164;48.590;11.410;2022-09-01T00:33:57;16.50;99.90
30371;DHT22;17164;48.590;11.410;2022-09-01T00:36:23;16.60;99.90
30371;DHT22;17164;48.590;11.410;2022-09-01T00:38:50;16.50;99.90
30371;DHT22;17164;48.590;11.410;2022-09-01T00:41:18;16.50;99.90
30371;DHT22;17164;48.590;11.410;2022-09-01T00:43:48;16.40;99.90
30371;DHT22;17164;48.590;11.410;2022-09-01T00:46:21;16.40;99.90
30371;DHT22;17164;48.590;11.410;2022-09-01T00:48:54;16.40;99.90
30371;DHT22;17164;48.590;11.410;2022-09-01T00:51:21;16.40;99.90
30371;DHT22;17164;48.590;11.410;2022-09-01T00:53:47;16.40;99.90
30371;DHT22;17164;48.590;11.410;2022-09-01T00:56:14;16.40;99.90
30371;DHT22;17164;48.590;11.410;2022-09-01T00:58:40;16.40;99.90
30371;DHT22;17164;48.590;11.410;2022-09-01T01:01:07;16.40;99.90
30371;DHT22;17164;48.590;11.410;2022-09-01T01:03:33;16.40;99.90
30371;DHT22;17164;48.590;11.410;2022-09-01T01:06:04;16.40;99.90
30371;DHT22;17164;48.590;11.410;2022-09-01T01:08:34;16.40;99.90
30371;DHT22;17164;48.590;11.410;2022-09-01T01:11:08;16.40;99.90
30371;DHT22;17164;48.590;11.410;2022-09-01T01:13:52;16.40;99.90
30371;DHT22;17164;48.590;11.410;2022-09-01T01:16:19;16.40;99.90
30371;DHT22;17164;48.590;11.410;2022-09-01T01:18:45;16.40;99.90
30371;DHT22;17164;48.590;11.410;2022-09-01T01:21:38;16.40;99.90
30371;DHT22;17164;48.590;11.410;2022-09-01T01:24:28;16.40;99.90
30371;DHT22;17164;48.590;11.410;2022-09-01T01:26:55;16.40;99.90
30371;DHT22;17164;48.590;11.410;2022-09-01T01:29:32;16.40;99.90
30371;DHT22;17164;48.590;11.410;2022-09-01T01:31:59;16.30;99.90
30371;DHT22;17164;48.590;11.410;2022-09-01T01:34:26;16.30;99.90
30371;DHT22;17164;48.590;11.410;2022-09-01T01:36:53;16.30;99.90
30371;DHT22;17164;48.590;11.410;2022-09-01T01:39:23;16.30;99.90
30371;DHT22;17164;48.590;11.410;2022-09-01T01:41:50;16.30;99.90
30371;DHT22;17164;48.590;11.410;2022-09-01T01:44:20;16.40;99.90
30371;DHT22;17164;48.590;11.410;2022-09-01T01:46:51;16.30;99.90
30371;DHT22;17164;48.590;11.410;2022-09-01T01:49:20;16.30;99.90
30371;DHT22;17164;48.590;11.410;2022-09-01T01:51:47;16.30;99.90
30371;DHT22;17164;48.590;11.410;2022-09-01T01:54:14;16.30;99.90
30371;DHT22;17164;48.590;11.410;2022-09-01T01:56:40;16.30;99.90
30371;DHT22;17164;48.590;11.410;2022-09-01T01:59:07;16.30;99.90
30371;DHT22;17164;48.590;11.410;2022-09-01T02:01:38;16.30;99.90
30371;DHT22;17164;48.590;11.410;2022-09-01T02:04:03;16.30;99.90
30371;DHT22;17164;48.590;11.410;2022-09-01T02:06:33;16.30;99.90
30371;DHT22;17164;48.590;11.410;2022-09-01T02:08:59;16.30;99.90
30371;DHT22;17164;48.590;11.410;2022-09-01T02:11:27;16.30;99.90
30371;DHT22;17164;48.590;11.410;2022-09-01T02:13:55;16.30;99.90
30371;DHT22;17164;48.590;11.410;2022-09-01T02:16:22;16.30;99.90
30371;DHT22;17164;48.590;11.410;2022-09-01T02:18:48;16.30;99.90
30371;DHT22;17164;48.590;11.410;2022-09-01T02:21:18;16.30;99.90
30371;DHT22;17164;48.590;11.410;2022-09-01T02:23:50;16.20;99.90
30371;DHT22;17164;48.590;11.410;2022-09-01T02:26:24;16.20;99.90
30371;DHT22;17164;48.590;11.410;2022-09-01T02:28:54;16.20;99.90
30371;DHT22;17164;48.590;11.410;2022-09-01T02:31:20;16.20;99.90
30371;DHT22;17164;48.590;11.410;2022-09-01T02:33:47;16.20;99.90
30371;DHT22;17164;48.590;11.410;2022-09-01T02:36:14;16.20;99.90
30371;DHT22;17164;48.590;11.410;2022-09-01T02:38:43;16.20;99.90
30371;DHT22;17164;48.590;11.410;2022-09-01T02:41:11;16.10;99.90
30371;DHT22;17164;48.590;11.410;2022-09-01T02:43:39;16.10;99.90
30371;DHT22;17164;48.590;11.410;2022-09-01T02:46:05;16.10;99.90
30371;DHT22;17164;48.590;11.410;2022-09-01T02:48:39;16.10;99.90
30371;DHT22;17164;48.590;11.410;2022-09-01T02:51:15;16.10;99.90
30371;DHT22;17164;48.590;11.410;2022-09-01T02:53:42;16.10;99.90
30371;DHT22;17164;48.590;11.410;2022-09-01T02:56:09;16.10;99.90
30371;DHT22;17164;48.590;11.410;2022-09-01T02:58:43;16.00;99.90
30371;DHT22;17164;48.590;11.410;2022-09-01T03:01:18;16.00;99.90
30371;DHT22;17164;48.590;11.410;2022-09-01T03:03:46;16.00;99.90
30371;DHT22;17164;48.590;11.410;2022-09-01T03:06:12;16.00;99.90
30371;DHT22;17164;48.590;11.410;2022-09-01T03:08:39;16.00;99.90
30371;DHT22;17164;48.590;11.410;2022-09-01T03:11:06;16.00;99.90
30371;DHT22;17164;48.590;11.410;2022-09-01T03:13:36;16.00;99.90
30371;DHT22;17164;48.590;11.410;2022-09-01T03:16:03;15.90;99.90
30371;DHT22;17164;48.590;11.410;2022-09-01T03:18:29;15.90;99.90
30371;DHT22;17164;48.590;11.410;2022-09-01T03:20:54;15.90;99.90
30371;DHT22;17164;48.590;11.410;2022-09-01T03:23:20;15.90;99.90
30371;DHT22;17164;48.590;11.410;2022-09-01T03:25:46;15.90;99.90
30371;DHT22;17164;48.590;11.410;2022-09-01T03:28:13;15.90;99.90
30371;DHT22;17164;48.590;11.410;2022-09-01T03:30:44;15.90;99.90
30371;DHT22;17164;48.590;11.410;2022-09-01T03:33:10;15.90;99.90
30371;DHT22;17164;48.590;11.410;2022-09-01T03:35:36;15.90;99.90
30371;DHT22;17164;48.590;11.410;2022-09-01T03:38:02;15.90;99.90
30371;DHT22;17164;48.590;11.410;2022-09-01T03:40:34;15.90;99.90
30371;DHT22;17164;48.590;11.410;2022-09-01T03:43:02;15.80;99.90
30371;DHT22;17164;48.590;11.410;2022-09-01T03:45:29;15.80;99.90
30371;DHT22;17164;48.590;11.410;2022-09-01T03:47:55;15.80;99.90
30371;DHT22;17164;48.590;11.410;2022-09-01T03:50:23;15.80;99.90
30371;DHT22;17164;48.590;11.410;2022-09-01T03:52:55;15.80;99.90
30371;DHT22;17164;48.590;11.410;2022-09-01T03:55:28;15.80;99.90
30371;DHT22;17164;48.590;11.410;2022-09-01T03:57:57;15.80;99.90
30371;DHT22;17164;48.590;11.410;2022-09-01T04:00:27;15.80;99.90
30371;DHT22;17164;48.590;11.410;2022-09-01T04:02:57;15.80;99.90
30371;DHT22;17164;48.590;11.410;2022-09-01T04:05:25;15.80;99.90
30371;DHT22;17164;48.590;11.410;2022-09-01T04:07:57;15.80;99.90
30371;DHT22;17164;48.590;11.410;2022-09-01T04:10:26;15.80;99.90
30371;DHT22;17164;48.590;11.410;2022-09-01T04:12:51;15.80;99.90
30371;DHT22;17164;48.590;11.410;2022-09-01T04:15:21;15.80;99.90
30371;DHT22;17164;48.590;11.410;2022-09-01T04:17:46;15.80;99.90
30371;DHT22;17164;48.590;11.410;2022-09-01T04:20:31;15.80;99.90
30371;DHT22;17164;48.590;11.410;2022-09-01T04:23:05;15.70;99.90
30371;DHT22;17164;48.590;11.410;2022-09-01T04:25:36;15.70;99.90
30371;DHT22;17164;48.590;11.410;2022-09-01T04:28:04;15.70;99.90
30371;DHT22;17164;48.590;11.410;2022-09-01T04:30:38;15.70;99.90
30371;DHT22;17164;48.590;11.410;2022-09-01T04:33:06;15.70;99.90
30371;DHT22;17164;48.590;11.410;2022-09-01T04:35:36;15.70;99.90
30371;DHT22;17164;48.590;11.410;2022-09-01T04:38:01;15.70;99.90
30371;DHT22;17164;48.590;11.410;2022-09-01T04:40:27;15.70;99.90
30371;DHT22;17164;48.590;11.410;2022-09-01T04:42:53;15.70;99.90
30371;DHT22;17164;48.590;11.410;2022-09-01T04:45:18;15.70;99.90
30371;DHT22;17164;48.590;11.410;2022-09-01T04:47:46;15.60;99.90
30371;DHT22;17164;48.590;11.410;2022-09-01T04:50:12;15.60;99.90
30371;DHT22;17164;48.590;11.410;2022-09-01T04:52:40;15.60;99.90
30371;DHT22;17164;48.590;11.410;2022-09-01T04:55:07;15.60;99.90
30371;DHT22;17164;48.590;11.410;2022-09-01T04:57:33;15.60;99.90
30371;DHT22;17164;48.590;11.410;2022-09-01T04:59:59;15.60;99.90
30371;DHT22;17164;48.590;11.410;2022-09-01T05:02:26;15.60;99.90
30371;DHT22;17164;48.590;11.410;2022-09-01T05:04:53;15.60;99.90
30371;DHT22;17164;48.590;11.410;2022-09-01T05:07:23;15.60;99.90
30371;DHT22;17164;48.590;11.410;2022-09-01T05:09:48;15.60;99.90
30371;DHT22;17164;48.590;11.410;2022-09-01T05:12:14;15.60;99.90
30371;DHT22;17164;48.590;11.410;2022-09-01T05:14:44;15.60;99.90
30371;DHT22;17164;48.590;11.410;2022-09-01T05:17:13;15.60;99.90
30371;DHT22;17164;48.590;11.410;2022-09-01T05:19:41;15.70;99.90
30371;DHT22;17164;48.590;11.410;2022-09-01T05:22:09;15.70;99.90
30371;DHT22;17164;48.590;11.410;2022-09-01T05:24:35;15.70;99.90
30371;DHT22;17164;48.590;11.410;2022-09-01T05:27:03;15.70;99.90
30371;DHT22;17164;48.590;11.410;2022-09-01T05:29:29;15.80;99.90
30371;DHT22;17164;48.590;11.410;2022-09-01T05:31:55;15.80;99.90
30371;DHT22;17164;48.590;11.410;2022-09-01T05:34:22;15.80;99.90
30371;DHT22;17164;48.590;11.410;2022-09-01T05:36:52;15.80;99.90
30371;DHT22;17164;48.590;11.410;2022-09-01T05:39:18;15.80;99.90
30371;DHT22;17164;48.590;11.410;2022-09-01T05:41:45;15.80;99.90
30371;DHT22;17164;48.590;11.410;2022-09-01T05:44:12;15.80;99.90
30371;DHT22;17164;48.590;11.410;2022-09-01T05:46:40;15.80;99.90
30371;DHT22;17164;48.590;11.410;2022-09-01T05:49:08;15.80;99.90
30371;DHT22;17164;48.590;11.410;2022-09-01T05:51:40;15.90;99.90
30371;DHT22;17164;48.590;11.410;2022-09-01T05:54:07;15.90;99.90
30371;DHT22;17164;48.590;11.410;2022-09-01T05:56:35;15.80;99.90
30371;DHT22;17164;48.590;11.410;2022-09-01T05:59:04;15.80;99.90
30371;DHT22;17164;48.590;11.410;2022-09-01T06:01:29;15.80;99.90
30371;DHT22;17164;48.590;11.410;2022-09-01T06:03:59;15.80;99.90
30371;DHT22;17164;48.590;11.410;2022-09-01T06:06:29;15.90;99.90
30371;DHT22;17164;48.590;11.410;2022-09-01T06:08:59;15.90;99.90
30371;DHT22;17164;48.590;11.410;2022-09-01T06:11:26;15.90;99.90
30371;DHT22;17164;48.590;11.410;2022-09-01T06:13:53;16.00;99.90
30371;DHT22;17164;48.590;11.410;2022-09-01T06:16:20;16.00;99.90
30371;DHT22;17164;48.590;11.410;2022-09-01T06:18:46;16.00;99.90
30371;DHT22;17164;48.590;11.410;2022-09-01T06:21:12;16.00;99.90
30371;DHT22;17164;48.590;11.410;2022-09-01T06:23:42;16.10;99.90
30371;DHT22;17164;48.590;11.410;2022-09-01T06:26:24;16.10;99.90
30371;DHT22;17164;48.590;11.410;2022-09-01T06:28:52;16.10;99.90
30371;DHT22;17164;48.590;11.410;2022-09-01T06:31:27;16.10;99.90
30371;DHT22;17164;48.590;11.410;2022-09-01T06:34:02;16.10;99.90
30371;DHT22;17164;48.590;11.410;2022-09-01T06:36:28;16.10;99.90
30371;DHT22;17164;48.590;11.410;2022-09-01T06:38:57;16.20;99.90
30371;DHT22;17164;48.590;11.410;2022-09-01T06:41:26;16.20;99.90
30371;DHT22;17164;48.590;11.410;2022-09-01T06:43:53;16.20;99.90
30371;DHT22;17164;48.590;11.410;2022-09-01T06:46:20;16.30;99.90
30371;DHT22;17164;48.590;11.410;2022-09-01T06:48:48;16.30;99.90
30371;DHT22;17164;48.590;11.410;2022-09-01T06:51:19;16.40;99.90
30371;DHT22;17164;48.590;11.410;2022-09-01T06:53:47;16.40;99.90
30371;DHT22;17164;48.590;11.410;2022-09-01T06:56:21;16.40;99.90
30371;DHT22;17164;48.590;11.410;2022-09-01T06:58:47;16.40;99.90
30371;DHT22;17164;48.590;11.410;2022-09-01T07:01:17;16.40;99.90
30371;DHT22;17164;48.590;11.410;2022-09-01T07:03:46;16.50;99.90
30371;DHT22;17164;48.590;11.410;2022-09-01T07:06:13;16.50;99.90
30371;DHT22;17164;48.590;11.410;2022-09-01T07:08:40;16.50;99.90
30371;DHT22;17164;48.590;11.410;2022-09-01T07:11:19;16.60;99.90
30371;DHT22;17164;48.590;11.410;2022-09-01T07:13:50;16.60;99.90
30371;DHT22;17164;48.590;11.410;2022-09-01T07:16:20;16.70;99.90
30371;DHT22;17164;48.590;11.410;2022-09-01T07:18:51;16.80;99.90
30371;DHT22;17164;48.590;11.410;2022-09-01T07:21:18;16.80;99.90
30371;DHT22;17164;48.590;11.410;2022-09-01T07:23:44;16.90;99.90
30371;DHT22;17164;48.590;11.410;2022-09-01T07:26:11;16.90;99.90
30371;DHT22;17164;48.590;11.410;2022-09-01T07:28:45;17.00;99.90
30371;DHT22;17164;48.590;11.410;2022-09-01T07:31:38;17.00;99.90
30371;DHT22;17164;48.590;11.410;2022-09-01T07:34:08;17.00;99.90
30371;DHT22;17164;48.590;11.410;2022-09-01T07:36:42;17.00;99.90
30371;DHT22;17164;48.590;11.410;2022-09-01T07:39:10;17.00;99.90
30371;DHT22;17164;48.590;11.410;2022-09-01T07:41:36;17.10;99.90
30371;DHT22;17164;48.590;11.410;2022-09-01T07:44:03;17.10;99.90
30371;DHT22;17164;48.590;11.410;2022-09-01T07:46:30;17.10;99.90
30371;DHT22;17164;48.590;11.410;2022-09-01T07:48:58;17.10;99.90
30371;DHT22;17164;48.590;11.410;2022-09-01T07:51:25;17.10;99.90
30371;DHT22;17164;48.590;11.410;2022-09-01T07:53:51;17.20;99.90
30371;DHT22;17164;48.590;11.410;2022-09-01T07:56:20;17.20;99.90
30371;DHT22;17164;48.590;11.410;2022-09-01T07:58:47;17.20;99.90
30371;DHT22;17164;48.590;11.410;2022-09-01T08:01:16;17.30;99.90
30371;DHT22;17164;48.590;11.410;2022-09-01T08:03:44;17.30;99.90
30371;DHT22;17164;48.590;11.410;2022-09-01T08:06:12;17.30;99.90
30371;DHT22;17164;48.590;11.410;2022-09-01T08:08:39;17.40;99.90
30371;DHT22;17164;48.590;11.410;2022-09-01T08:11:05;17.40;99.90
30371;DHT22;17164;48.590;11.410;2022-09-01T08:13:36;17.40;99.90
30371;DHT22;17164;48.590;11.410;2022-09-01T08:16:05;17.40;99.90
30371;DHT22;17164;48.590;11.410;2022-09-01T08:18:31;17.50;99.90
30371;DHT22;17164;48.590;11.410;2022-09-01T08:20:56;17.50;99.90
30371;DHT22;17164;48.590;11.410;2022-09-01T08:23:22;17.60;99.90
30371;DHT22;17164;48.590;11.410;2022-09-01T08:25:52;17.60;99.90
30371;DHT22;17164;48.590;11.410;2022-09-01T08:28:18;17.60;99.90
30371;DHT22;17164;48.590;11.410;2022-09-01T08:30:44;17.70;99.90
30371;DHT22;17164;48.590;11.410;2022-09-01T08:33:10;17.80;99.90
30371;DHT22;17164;48.590;11.410;2022-09-01T08:35:43;17.80;99.90
30371;DHT22;17164;48.590;11.410;2022-09-01T08:38:10;17.90;99.90
30371;DHT22;17164;48.590;11.410;2022-09-01T08:40:36;17.90;99.90
30371;DHT22;17164;48.590;11.410;2022-09-01T08:43:08;17.90;99.90
30371;DHT22;17164;48.590;11.410;2022-09-01T08:45:52;18.00;99.90
30371;DHT22;17164;48.590;11.410;2022-09-01T08:54:39;18.20;99.90
30371;DHT22;17164;48.590;11.410;2022-09-01T08:57:43;18.30;99.90
30371;DHT22;17164;48.590;11.410;2022-09-01T09:00:13;18.40;99.90
30371;DHT22;17164;48.590;11.410;2022-09-01T09:02:53;18.60;99.90
30371;DHT22;17164;48.590;11.410;2022-09-01T09:08:46;18.90;99.90
30371;DHT22;17164;48.590;11.410;2022-09-01T09:16:43;19.10;99.90
30371;DHT22;17164;48.590;11.410;2022-09-01T09:19:41;19.10;99.90
30371;DHT22;17164;48.590;11.410;2022-09-01T09:22:10;19.20;99.90
30371;DHT22;17164;48.590;11.410;2022-09-01T09:27:27;19.40;99.90
30371;DHT22;17164;48.590;11.410;2022-09-01T09:30:12;19.40;99.90
30371;DHT22;17164;48.590;11.410;2022-09-01T09:33:02;19.40;99.90
30371;DHT22;17164;48.590;11.410;2022-09-01T09:35:36;19.40;99.90
30371;DHT22;17164;48.590;11.410;2022-09-01T09:43:28;19.40;99.90
30371;DHT22;17164;48.590;11.410;2022-09-01T09:49:34;19.60;99.90
30371;DHT22;17164;48.590;11.410;2022-09-01T09:54:36;19.70;99.90
30371;DHT22;17164;48.590;11.410;2022-09-01T10:02:25;19.40;99.90
30371;DHT22;17164;48.590;11.410;2022-09-01T10:04:51;19.30;99.90
30371;DHT22;17164;48.590;11.410;2022-09-01T10:09:53;19.30;99.90
30371;DHT22;17164;48.590;11.410;2022-09-01T10:12:21;19.30;99.90
30371;DHT22;17164;48.590;11.410;2022-09-01T10:17:34;19.40;99.90
30371;DHT22;17164;48.590;11.410;2022-09-01T10:22:34;19.40;99.90
30371;DHT22;17164;48.590;11.410;2022-09-01T10:25:01;19.40;99.90
30371;DHT22;17164;48.590;11.410;2022-09-01T10:27:34;19.40;99.90
30371;DHT22;17164;48.590;11.410;2022-09-01T10:30:02;19.40;99.90
30371;DHT22;17164;48.590;11.410;2022-09-01T10:32:43;19.40;99.90
30371;DHT22;17164;48.590;11.410;2022-09-01T10:35:25;19.40;99.90
30371;DHT22;17164;48.590;11.410;2022-09-01T10:37:52;19.50;99.90
30371;DHT22;17164;48.590;11.410;2022-09-01T10:42:56;19.50;99.90
30371;DHT22;17164;48.590;11.410;2022-09-01T10:45:31;19.50;99.90
30371;DHT22;17164;48.590;11.410;2022-09-01T10:51:45;19.70;99.90
30371;DHT22;17164;48.590;11.410;2022-09-01T10:53:56;19.70;99.90
30371;DHT22;17164;48.590;11.410;2022-09-01T10:56:45;19.80;99.90
30371;DHT22;17164;48.590;11.410;2022-09-01T10:59:28;20.00;99.90
30371;DHT22;17164;48.590;11.410;2022-09-01T11:23:00;20.80;99.90
30371;DHT22;17164;48.590;11.410;2022-09-01T11:25:42;20.90;99.90
30371;DHT22;17164;48.590;11.410;2022-09-01T11:30:44;20.90;99.90
30371;DHT22;17164;48.590;11.410;2022-09-01T11:36:13;21.00;99.90
30371;DHT22;17164;48.590;11.410;2022-09-01T11:38:48;21.00;99.90
30371;DHT22;17164;48.590;11.410;2022-09-01T11:41:28;21.00;99.90
30371;DHT22;17164;48.590;11.410;2022-09-01T11:44:00;21.00;99.90
30371;DHT22;17164;48.590;11.410;2022-09-01T11:46:32;21.10;99.90
30371;DHT22;17164;48.590;11.410;2022-09-01T11:49:04;21.10;99.90
30371;DHT22;17164;48.590;11.410;2022-09-01T11:51:43;21.20;99.90
30371;DHT22;17164;48.590;11.410;2022-09-01T11:54:10;21.40;99.90
30371;DHT22;17164;48.590;11.410;2022-09-01T11:56:36;21.60;99.90
30371;DHT22;17164;48.590;11.410;2022-09-01T11:59:01;21.70;99.90
30371;DHT22;17164;48.590;11.410;2022-09-01T12:01:33;21.90;99.90
30371;DHT22;17164;48.590;11.410;2022-09-01T12:04:18;22.20;99.90
30371;DHT22;17164;48.590;11.410;2022-09-01T12:09:17;22.30;99.90
30371;DHT22;17164;48.590;11.410;2022-09-01T12:11:43;22.40;99.90
30371;DHT22;17164;48.590;11.410;2022-09-01T12:14:17;22.30;99.90
30371;DHT22;17164;48.590;11.410;2022-09-01T12:16:43;22.30;99.90
30371;DHT22;17164;48.590;11.410;2022-09-01T12:19:22;22.20;99.90
30371;DHT22;17164;48.590;11.410;2022-09-01T12:22:00;22.10;99.90
30371;DHT22;17164;48.590;11.410;2022-09-01T12:24:26;22.00;99.90
30371;DHT22;17164;48.590;11.410;2022-09-01T12:26:54;21.90;99.90
30371;DHT22;17164;48.590;11.410;2022-09-01T12:29:22;21.90;99.90
30371;DHT22;17164;48.590;11.410;2022-09-01T12:31:49;21.80;99.90
30371;DHT22;17164;48.590;11.410;2022-09-01T12:39:35;21.70;99.90
30371;DHT22;17164;48.590;11.410;2022-09-01T12:49:39;21.50;99.90
30371;DHT22;17164;48.590;11.410;2022-09-01T12:55:14;21.50;99.90
30371;DHT22;17164;48.590;11.410;2022-09-01T12:57:47;21.60;99.90
30371;DHT22;17164;48.590;11.410;2022-09-01T13:00:24;21.70;99.90
30371;DHT22;17164;48.590;11.410;2022-09-01T13:05:44;21.80;99.90
30371;DHT22;17164;48.590;11.410;2022-09-01T13:08:32;22.00;99.90
30371;DHT22;17164;48.590;11.410;2022-09-01T13:11:04;22.10;99.90
30371;DHT22;17164;48.590;11.410;2022-09-01T13:13:31;22.10;99.90
30371;DHT22;17164;48.590;11.410;2022-09-01T13:15:58;22.10;99.90
30371;DHT22;17164;48.590;11.410;2022-09-01T13:18:32;22.10;99.90
30371;DHT22;17164;48.590;11.410;2022-09-01T13:20:57;22.10;99.90
30371;DHT22;17164;48.590;11.410;2022-09-01T13:23:23;22.20;99.90
30371;DHT22;17164;48.590;11.410;2022-09-01T13:25:49;22.20;99.60
30371;DHT22;17164;48.590;11.410;2022-09-01T13:28:16;22.20;99.90
30371;DHT22;17164;48.590;11.410;2022-09-01T13:30:44;22.40;99.30
30371;DHT22;17164;48.590;11.410;2022-09-01T13:33:11;22.40;99.80
30371;DHT22;17164;48.590;11.410;2022-09-01T13:35:37;22.50;99.30
30371;DHT22;17164;48.590;11.410;2022-09-01T13:38:03;22.50;99.80
30371;DHT22;17164;48.590;11.410;2022-09-01T13:40:28;22.60;99.90
30371;DHT22;17164;48.590;11.410;2022-09-01T13:42:54;22.70;98.80
30371;DHT22;17164;48.590;11.410;2022-09-01T13:45:22;22.80;99.80
30371;DHT22;17164;48.590;11.410;2022-09-01T13:47:50;23.00;99.40
30371;DHT22;17164;48.590;11.410;2022-09-01T13:50:18;23.10;98.90
30371;DHT22;17164;48.590;11.410;2022-09-01T13:52:48;23.20;99.40
30371;DHT22;17164;48.590;11.410;2022-09-01T13:55:17;23.30;98.40
30371;DHT22;17164;48.590;11.410;2022-09-01T13:57:43;23.40;96.20
30371;DHT22;17164;48.590;11.410;2022-09-01T14:00:18;23.40;95.50
30371;DHT22;17164;48.590;11.410;2022-09-01T14:02:47;23.40;97.00
30371;DHT22;17164;48.590;11.410;2022-09-01T14:05:35;23.40;97.30
30371;DHT22;17164;48.590;11.410;2022-09-01T14:08:07;23.50;97.10
30371;DHT22;17164;48.590;11.410;2022-09-01T14:10:39;23.60;96.40
30371;DHT22;17164;48.590;11.410;2022-09-01T14:13:06;23.60;96.50
30371;DHT22;17164;48.590;11.410;2022-09-01T14:15:33;23.60;94.20
30371;DHT22;17164;48.590;11.410;2022-09-01T14:17:59;23.50;93.70
30371;DHT22;17164;48.590;11.410;2022-09-01T14:20:28;23.60;94.60
30371;DHT22;17164;48.590;11.410;2022-09-01T14:22:56;23.70;94.00
30371;DHT22;17164;48.590;11.410;2022-09-01T14:25:22;23.80;93.60
30371;DHT22;17164;48.590;11.410;2022-09-01T14:27:48;23.90;93.30
30371;DHT22;17164;48.590;11.410;2022-09-01T14:30:21;24.00;93.40
30371;DHT22;17164;48.590;11.410;2022-09-01T14:32:48;24.10;92.60
30371;DHT22;17164;48.590;11.410;2022-09-01T14:35:15;24.20;90.10
30371;DHT22;17164;48.590;11.410;2022-09-01T14:37:41;24.30;90.90
30371;DHT22;17164;48.590;11.410;2022-09-01T14:40:08;24.40;90.50
30371;DHT22;17164;48.590;11.410;2022-09-01T14:42:34;24.60;87.90
30371;DHT22;17164;48.590;11.410;2022-09-01T14:45:02;24.80;88.20
30371;DHT22;17164;48.590;11.410;2022-09-01T14:47:29;25.00;90.30
30371;DHT22;17164;48.590;11.410;2022-09-01T14:49:56;25.10;88.50
30371;DHT22;17164;48.590;11.410;2022-09-01T14:52:22;25.20;85.90
30371;DHT22;17164;48.590;11.410;2022-09-01T14:54:47;25.20;84.50
30371;DHT22;17164;48.590;11.410;2022-09-01T14:57:13;25.20;84.40
30371;DHT22;17164;48.590;11.410;2022-09-01T14:59:40;25.20;81.10
30371;DHT22;17164;48.590;11.410;2022-09-01T15:02:06;25.20;79.50
30371;DHT22;17164;48.590;11.410;2022-09-01T15:04:32;25.30;83.60
30371;DHT22;17164;48.590;11.410;2022-09-01T15:06:58;25.30;80.10
30371;DHT22;17164;48.590;11.410;2022-09-01T15:09:24;25.30;78.50
30371;DHT22;17164;48.590;11.410;2022-09-01T15:11:49;25.30;80.60
30371;DHT22;17164;48.590;11.410;2022-09-01T15:14:15;25.30;77.60
30371;DHT22;17164;48.590;11.410;2022-09-01T15:16:41;25.40;78.60
30371;DHT22;17164;48.590;11.410;2022-09-01T15:19:08;25.40;75.80
30371;DHT22;17164;48.590;11.410;2022-09-01T15:21:36;25.60;77.80
30371;DHT22;17164;48.590;11.410;2022-09-01T15:24:05;26.00;76.70
30371;DHT22;17164;48.590;11.410;2022-09-01T15:26:32;26.30;75.20
30371;DHT22;17164;48.590;11.410;2022-09-01T15:28:57;26.30;71.00
30371;DHT22;17164;48.590;11.410;2022-09-01T15:31:24;25.80;73.00
30371;DHT22;17164;48.590;11.410;2022-09-01T15:33:55;25.30;74.20
30371;DHT22;17164;48.590;11.410;2022-09-01T15:36:22;24.70;75.10
30371;DHT22;17164;48.590;11.410;2022-09-01T15:38:47;24.30;76.30
30371;DHT22;17164;48.590;11.410;2022-09-01T15:41:19;23.80;77.80
30371;DHT22;17164;48.590;11.410;2022-09-01T15:43:45;23.40;79.70
30371;DHT22;17164;48.590;11.410;2022-09-01T15:46:11;23.10;79.80
30371;DHT22;17164;48.590;11.410;2022-09-01T15:48:38;22.80;79.80
30371;DHT22;17164;48.590;11.410;2022-09-01T15:53:48;22.50;82.80
30371;DHT22;17164;48.590;11.410;2022-09-01T15:56:14;22.80;83.80
30371;DHT22;17164;48.590;11.410;2022-09-01T15:58:42;23.10;84.60
30371;DHT22;17164;48.590;11.410;2022-09-01T16:01:08;23.50;83.20
30371;DHT22;17164;48.590;11.410;2022-09-01T16:03:34;23.80;83.80
30371;DHT22;17164;48.590;11.410;2022-09-01T16:06:02;24.10;82.10
30371;DHT22;17164;48.590;11.410;2022-09-01T16:08:28;24.40;81.40
30371;DHT22;17164;48.590;11.410;2022-09-01T16:10:53;24.70;81.60
30371;DHT22;17164;48.590;11.410;2022-09-01T16:13:20;25.20;80.10
30371;DHT22;17164;48.590;11.410;2022-09-01T16:16:08;25.60;78.20
30371;DHT22;17164;48.590;11.410;2022-09-01T16:18:45;26.20;76.50
30371;DHT22;17164;48.590;11.410;2022-09-01T16:24:04;27.30;74.20
30371;DHT22;17164;48.590;11.410;2022-09-01T16:26:33;27.50;72.80
30371;DHT22;17164;48.590;11.410;2022-09-01T16:29:01;27.60;72.20
30371;DHT22;17164;48.590;11.410;2022-09-01T16:31:30;27.90;68.10
30371;DHT22;17164;48.590;11.410;2022-09-01T16:33:58;28.20;65.40
30371;DHT22;17164;48.590;11.410;2022-09-01T16:36:56;28.50;65.00
30371;DHT22;17164;48.590;11.410;2022-09-01T16:58:47;23.50;77.30
30371;DHT22;17164;48.590;11.410;2022-09-01T17:12:11;21.90;88.90
30371;DHT22;17164;48.590;11.410;2022-09-01T17:14:43;21.70;88.20
30371;DHT22;17164;48.590;11.410;2022-09-01T17:17:17;21.50;89.60
30371;DHT22;17164;48.590;11.410;2022-09-01T17:19:44;21.40;89.20
30371;DHT22;17164;48.590;11.410;2022-09-01T17:22:17;21.30;88.60
30371;DHT22;17164;48.590;11.410;2022-09-01T17:24:44;21.20;88.90
30371;DHT22;17164;48.590;11.410;2022-09-01T17:27:19;21.10;88.40
30371;DHT22;17164;48.590;11.410;2022-09-01T17:29:49;21.00;89.90
30371;DHT22;17164;48.590;11.410;2022-09-01T17:35:24;20.80;90.00
30371;DHT22;17164;48.590;11.410;2022-09-01T17:43:33;20.50;91.30
30371;DHT22;17164;48.590;11.410;2022-09-01T17:49:10;20.30;91.90
30371;DHT22;17164;48.590;11.410;2022-09-01T17:55:05;20.00;92.60
30371;DHT22;17164;48.590;11.410;2022-09-01T18:00:25;19.70;92.90